Terminal Aerodrome Forecast
Issued by NWS Pendleton, OR

Home | Current Version | Previous Version | Text Only | Print | Product List | Glossary On
Versions: 1 2 3 4 5 6 7 8 9 10 11 12
181
FTUS46 KPDT 242320
TAFPDT
TAF
KPDT 242320Z 2500/2524 03012KT P6SM SCT250
     FM250200 05006KT P6SM SCT250
     FM250600 12005KT P6SM SCT250
     FM251800 32008KT P6SM SCT250=

USA.gov is the U.S. government's official web portal to all federal, state and local government web resources and services.